sensor_id;sensor_type;location;lat;lon;timestamp;temperature;humidity
19646;DHT22;9971;52.446;13.452;2023-08-08T00:03:25;16.10;99.90
19646;DHT22;9971;52.446;13.452;2023-08-08T00:08:28;16.00;99.90
19646;DHT22;9971;52.446;13.452;2023-08-08T00:13:30;16.00;99.90
19646;DHT22;9971;52.446;13.452;2023-08-08T00:18:33;15.90;99.90
19646;DHT22;9971;52.446;13.452;2023-08-08T00:23:35;15.70;99.90
19646;DHT22;9971;52.446;13.452;2023-08-08T00:28:38;15.70;99.90
19646;DHT22;9971;52.446;13.452;2023-08-08T00:33:40;15.70;99.90
19646;DHT22;9971;52.446;13.452;2023-08-08T00:38:43;15.60;99.90
19646;DHT22;9971;52.446;13.452;2023-08-08T00:43:45;15.60;99.90
19646;DHT22;9971;52.446;13.452;2023-08-08T00:48:48;15.50;99.90
19646;DHT22;9971;52.446;13.452;2023-08-08T00:53:50;15.50;99.90
19646;DHT22;9971;52.446;13.452;2023-08-08T00:58:53;15.40;99.90
19646;DHT22;9971;52.446;13.452;2023-08-08T01:03:55;15.40;99.90
19646;DHT22;9971;52.446;13.452;2023-08-08T01:08:59;15.40;99.90
19646;DHT22;9971;52.446;13.452;2023-08-08T01:14:00;15.30;99.90
19646;DHT22;9971;52.446;13.452;2023-08-08T01:19:02;15.30;99.90
19646;DHT22;9971;52.446;13.452;2023-08-08T01:24:16;15.20;99.90
19646;DHT22;9971;52.446;13.452;2023-08-08T01:29:16;15.20;99.90
19646;DHT22;9971;52.446;13.452;2023-08-08T01:34:19;15.20;99.90
19646;DHT22;9971;52.446;13.452;2023-08-08T01:39:22;15.20;99.90
19646;DHT22;9971;52.446;13.452;2023-08-08T01:44:23;15.10;99.90
19646;DHT22;9971;52.446;13.452;2023-08-08T01:49:25;15.00;99.90
19646;DHT22;9971;52.446;13.452;2023-08-08T01:54:29;15.00;99.90
19646;DHT22;9971;52.446;13.452;2023-08-08T01:59:31;15.00;99.90
19646;DHT22;9971;52.446;13.452;2023-08-08T02:04:33;15.00;99.90
19646;DHT22;9971;52.446;13.452;2023-08-08T02:09:36;15.00;99.90
19646;DHT22;9971;52.446;13.452;2023-08-08T02:14:38;15.00;99.90
19646;DHT22;9971;52.446;13.452;2023-08-08T02:19:41;15.00;99.90
19646;DHT22;9971;52.446;13.452;2023-08-08T02:24:44;14.90;99.90
19646;DHT22;9971;52.446;13.452;2023-08-08T02:29:46;14.90;99.90
19646;DHT22;9971;52.446;13.452;2023-08-08T02:34:49;14.90;99.90
19646;DHT22;9971;52.446;13.452;2023-08-08T02:39:51;14.90;99.90
19646;DHT22;9971;52.446;13.452;2023-08-08T02:44:53;14.90;99.90
19646;DHT22;9971;52.446;13.452;2023-08-08T02:49:56;14.90;99.90
19646;DHT22;9971;52.446;13.452;2023-08-08T02:54:58;14.90;99.90
19646;DHT22;9971;52.446;13.452;2023-08-08T03:00:01;14.90;99.90
19646;DHT22;9971;52.446;13.452;2023-08-08T03:05:03;14.80;99.90
19646;DHT22;9971;52.446;13.452;2023-08-08T03:10:06;14.80;99.90
19646;DHT22;9971;52.446;13.452;2023-08-08T03:15:09;14.80;99.90
19646;DHT22;9971;52.446;13.452;2023-08-08T03:20:12;14.80;99.90
19646;DHT22;9971;52.446;13.452;2023-08-08T03:25:14;14.80;99.90
19646;DHT22;9971;52.446;13.452;2023-08-08T03:30:17;14.80;99.90
19646;DHT22;9971;52.446;13.452;2023-08-08T03:35:20;14.80;99.90
19646;DHT22;9971;52.446;13.452;2023-08-08T03:40:22;14.80;99.90
19646;DHT22;9971;52.446;13.452;2023-08-08T03:45:30;14.70;99.90
19646;DHT22;9971;52.446;13.452;2023-08-08T03:50:34;14.70;99.90
19646;DHT22;9971;52.446;13.452;2023-08-08T03:55:36;14.60;99.90
19646;DHT22;9971;52.446;13.452;2023-08-08T04:00:39;14.60;99.90
19646;DHT22;9971;52.446;13.452;2023-08-08T04:05:44;14.70;99.90
19646;DHT22;9971;52.446;13.452;2023-08-08T04:10:46;14.70;99.90
19646;DHT22;9971;52.446;13.452;2023-08-08T04:15:47;14.70;99.90
19646;DHT22;9971;52.446;13.452;2023-08-08T04:20:50;14.80;99.90
19646;DHT22;9971;52.446;13.452;2023-08-08T04:25:53;14.90;99.90
19646;DHT22;9971;52.446;13.452;2023-08-08T04:30:55;14.90;99.90
19646;DHT22;9971;52.446;13.452;2023-08-08T04:35:59;15.00;99.90
19646;DHT22;9971;52.446;13.452;2023-08-08T04:41:07;15.00;99.90
19646;DHT22;9971;52.446;13.452;2023-08-08T04:46:24;15.10;99.90
19646;DHT22;9971;52.446;13.452;2023-08-08T04:51:33;15.10;99.90
19646;DHT22;9971;52.446;13.452;2023-08-08T04:56:48;15.10;99.90
19646;DHT22;9971;52.446;13.452;2023-08-08T05:01:56;15.10;99.90
19646;DHT22;9971;52.446;13.452;2023-08-08T05:07:02;15.10;99.90
19646;DHT22;9971;52.446;13.452;2023-08-08T05:12:09;15.20;99.90
19646;DHT22;9971;52.446;13.452;2023-08-08T05:17:22;15.30;99.90
19646;DHT22;9971;52.446;13.452;2023-08-08T05:22:30;15.30;99.90
19646;DHT22;9971;52.446;13.452;2023-08-08T05:27:34;15.30;99.90
19646;DHT22;9971;52.446;13.452;2023-08-08T05:32:42;15.40;99.90
19646;DHT22;9971;52.446;13.452;2023-08-08T05:37:51;15.50;99.90
19646;DHT22;9971;52.446;13.452;2023-08-08T05:59:12;16.10;99.90
19646;DHT22;9971;52.446;13.452;2023-08-08T06:04:31;16.20;99.90
19646;DHT22;9971;52.446;13.452;2023-08-08T06:09:37;16.20;99.90
19646;DHT22;9971;52.446;13.452;2023-08-08T06:14:42;16.30;99.90
19646;DHT22;9971;52.446;13.452;2023-08-08T06:19:46;16.50;99.90
19646;DHT22;9971;52.446;13.452;2023-08-08T06:25:03;16.50;99.90
19646;DHT22;9971;52.446;13.452;2023-08-08T06:30:13;16.50;99.90
19646;DHT22;9971;52.446;13.452;2023-08-08T06:35:16;16.50;99.90
19646;DHT22;9971;52.446;13.452;2023-08-08T06:40:18;16.60;99.90
19646;DHT22;9971;52.446;13.452;2023-08-08T06:45:22;16.70;99.90
19646;DHT22;9971;52.446;13.452;2023-08-08T06:50:24;16.60;99.90
19646;DHT22;9971;52.446;13.452;2023-08-08T06:55:30;16.70;99.90
19646;DHT22;9971;52.446;13.452;2023-08-08T07:00:35;16.80;99.90
19646;DHT22;9971;52.446;13.452;2023-08-08T07:05:43;16.80;99.90
19646;DHT22;9971;52.446;13.452;2023-08-08T07:10:49;16.80;99.90
19646;DHT22;9971;52.446;13.452;2023-08-08T07:15:53;16.80;99.90
19646;DHT22;9971;52.446;13.452;2023-08-08T07:20:57;17.00;99.90
19646;DHT22;9971;52.446;13.452;2023-08-08T07:26:03;17.30;99.90
19646;DHT22;9971;52.446;13.452;2023-08-08T07:31:09;17.50;99.90
19646;DHT22;9971;52.446;13.452;2023-08-08T07:36:11;17.60;99.90
19646;DHT22;9971;52.446;13.452;2023-08-08T07:41:14;17.80;99.90
19646;DHT22;9971;52.446;13.452;2023-08-08T07:46:16;17.90;99.90
19646;DHT22;9971;52.446;13.452;2023-08-08T07:51:19;17.90;99.90
19646;DHT22;9971;52.446;13.452;2023-08-08T07:56:21;18.00;99.90
19646;DHT22;9971;52.446;13.452;2023-08-08T08:01:24;17.80;99.90
19646;DHT22;9971;52.446;13.452;2023-08-08T08:06:26;17.90;99.90
19646;DHT22;9971;52.446;13.452;2023-08-08T08:11:29;18.00;99.90
19646;DHT22;9971;52.446;13.452;2023-08-08T08:16:30;18.20;99.90
19646;DHT22;9971;52.446;13.452;2023-08-08T08:21:33;18.40;99.90
19646;DHT22;9971;52.446;13.452;2023-08-08T08:26:35;18.30;99.90
19646;DHT22;9971;52.446;13.452;2023-08-08T08:31:38;18.40;99.90
19646;DHT22;9971;52.446;13.452;2023-08-08T08:36:40;18.50;99.90
19646;DHT22;9971;52.446;13.452;2023-08-08T08:41:42;19.00;99.90
19646;DHT22;9971;52.446;13.452;2023-08-08T08:46:44;19.00;99.90
19646;DHT22;9971;52.446;13.452;2023-08-08T08:51:46;19.00;99.90
19646;DHT22;9971;52.446;13.452;2023-08-08T08:56:49;18.90;99.90
19646;DHT22;9971;52.446;13.452;2023-08-08T09:01:51;19.10;99.90
19646;DHT22;9971;52.446;13.452;2023-08-08T09:06:53;18.90;99.90
19646;DHT22;9971;52.446;13.452;2023-08-08T09:11:55;19.10;99.90
19646;DHT22;9971;52.446;13.452;2023-08-08T09:16:57;19.20;99.90
19646;DHT22;9971;52.446;13.452;2023-08-08T09:22:00;19.20;99.90
19646;DHT22;9971;52.446;13.452;2023-08-08T09:27:02;19.50;99.90
19646;DHT22;9971;52.446;13.452;2023-08-08T09:32:06;19.80;99.90
19646;DHT22;9971;52.446;13.452;2023-08-08T09:37:08;19.90;99.90
19646;DHT22;9971;52.446;13.452;2023-08-08T09:42:11;19.90;99.90
19646;DHT22;9971;52.446;13.452;2023-08-08T09:47:14;20.10;99.90
19646;DHT22;9971;52.446;13.452;2023-08-08T09:52:15;20.90;99.90
19646;DHT22;9971;52.446;13.452;2023-08-08T09:57:17;20.80;99.90
19646;DHT22;9971;52.446;13.452;2023-08-08T10:02:19;20.50;99.90
19646;DHT22;9971;52.446;13.452;2023-08-08T10:07:22;20.40;99.90
19646;DHT22;9971;52.446;13.452;2023-08-08T10:12:25;20.60;99.90
19646;DHT22;9971;52.446;13.452;2023-08-08T10:17:26;20.50;99.90
19646;DHT22;9971;52.446;13.452;2023-08-08T10:22:28;20.50;99.90
19646;DHT22;9971;52.446;13.452;2023-08-08T10:27:34;20.20;99.90
19646;DHT22;9971;52.446;13.452;2023-08-08T10:32:39;20.40;99.90
19646;DHT22;9971;52.446;13.452;2023-08-08T10:37:40;20.80;99.90
19646;DHT22;9971;52.446;13.452;2023-08-08T10:42:43;21.30;99.90
19646;DHT22;9971;52.446;13.452;2023-08-08T10:47:45;21.10;99.90
19646;DHT22;9971;52.446;13.452;2023-08-08T10:52:52;20.80;99.90
19646;DHT22;9971;52.446;13.452;2023-08-08T10:57:54;20.40;99.90
19646;DHT22;9971;52.446;13.452;2023-08-08T11:02:57;20.20;99.90
19646;DHT22;9971;52.446;13.452;2023-08-08T11:07:59;20.00;99.90
19646;DHT22;9971;52.446;13.452;2023-08-08T11:13:02;20.20;99.90
19646;DHT22;9971;52.446;13.452;2023-08-08T11:18:03;20.50;99.90
19646;DHT22;9971;52.446;13.452;2023-08-08T11:23:05;21.00;99.90
19646;DHT22;9971;52.446;13.452;2023-08-08T11:28:08;21.60;99.90
19646;DHT22;9971;52.446;13.452;2023-08-08T11:33:12;21.70;99.90
19646;DHT22;9971;52.446;13.452;2023-08-08T11:38:13;21.40;99.90
19646;DHT22;9971;52.446;13.452;2023-08-08T11:43:14;20.60;99.90
19646;DHT22;9971;52.446;13.452;2023-08-08T11:48:20;19.20;99.90
19646;DHT22;9971;52.446;13.452;2023-08-08T11:53:19;18.20;99.90
19646;DHT22;9971;52.446;13.452;2023-08-08T11:58:23;17.80;99.90
19646;DHT22;9971;52.446;13.452;2023-08-08T12:03:25;17.90;99.90
19646;DHT22;9971;52.446;13.452;2023-08-08T12:08:25;18.70;99.90
19646;DHT22;9971;52.446;13.452;2023-08-08T12:13:29;18.80;99.90
19646;DHT22;9971;52.446;13.452;2023-08-08T12:18:31;19.20;99.90
19646;DHT22;9971;52.446;13.452;2023-08-08T12:23:33;20.10;99.90
19646;DHT22;9971;52.446;13.452;2023-08-08T12:28:35;20.60;99.90
19646;DHT22;9971;52.446;13.452;2023-08-08T12:33:37;21.00;99.90
19646;DHT22;9971;52.446;13.452;2023-08-08T12:38:40;21.10;99.90
19646;DHT22;9971;52.446;13.452;2023-08-08T12:43:42;20.80;99.90
19646;DHT22;9971;52.446;13.452;2023-08-08T12:48:44;19.70;99.90
19646;DHT22;9971;52.446;13.452;2023-08-08T12:53:51;19.30;99.90
19646;DHT22;9971;52.446;13.452;2023-08-08T12:58:53;19.80;99.90
19646;DHT22;9971;52.446;13.452;2023-08-08T13:03:56;20.30;99.90
19646;DHT22;9971;52.446;13.452;2023-08-08T13:08:58;21.00;99.90
19646;DHT22;9971;52.446;13.452;2023-08-08T13:14:01;21.40;99.90
19646;DHT22;9971;52.446;13.452;2023-08-08T13:19:03;21.50;99.90
19646;DHT22;9971;52.446;13.452;2023-08-08T13:24:06;21.50;99.90
19646;DHT22;9971;52.446;13.452;2023-08-08T13:29:08;21.40;99.90
19646;DHT22;9971;52.446;13.452;2023-08-08T13:34:11;21.70;99.90
19646;DHT22;9971;52.446;13.452;2023-08-08T13:39:13;22.60;99.90
19646;DHT22;9971;52.446;13.452;2023-08-08T13:44:15;22.90;99.90
19646;DHT22;9971;52.446;13.452;2023-08-08T13:49:17;22.20;99.90
19646;DHT22;9971;52.446;13.452;2023-08-08T13:54:20;21.10;99.90
19646;DHT22;9971;52.446;13.452;2023-08-08T13:59:22;19.60;99.90
19646;DHT22;9971;52.446;13.452;2023-08-08T14:04:24;18.70;99.90
19646;DHT22;9971;52.446;13.452;2023-08-08T14:09:27;18.40;99.90
19646;DHT22;9971;52.446;13.452;2023-08-08T14:14:30;18.40;99.90
19646;DHT22;9971;52.446;13.452;2023-08-08T14:19:32;18.60;99.90
19646;DHT22;9971;52.446;13.452;2023-08-08T14:24:34;19.10;99.90
19646;DHT22;9971;52.446;13.452;2023-08-08T14:29:37;19.50;99.90
19646;DHT22;9971;52.446;13.452;2023-08-08T14:34:39;20.20;99.90
19646;DHT22;9971;52.446;13.452;2023-08-08T14:39:41;21.20;99.90
19646;DHT22;9971;52.446;13.452;2023-08-08T14:44:44;21.90;99.90
19646;DHT22;9971;52.446;13.452;2023-08-08T14:49:47;22.20;99.90
19646;DHT22;9971;52.446;13.452;2023-08-08T14:54:49;22.30;99.90
19646;DHT22;9971;52.446;13.452;2023-08-08T14:59:51;22.50;99.90
19646;DHT22;9971;52.446;13.452;2023-08-08T15:04:53;22.80;99.90
19646;DHT22;9971;52.446;13.452;2023-08-08T15:09:56;23.20;99.90
19646;DHT22;9971;52.446;13.452;2023-08-08T15:14:58;22.80;99.90
19646;DHT22;9971;52.446;13.452;2023-08-08T15:20:02;22.30;99.90
19646;DHT22;9971;52.446;13.452;2023-08-08T15:25:05;22.30;99.90
19646;DHT22;9971;52.446;13.452;2023-08-08T15:30:12;22.00;99.90
19646;DHT22;9971;52.446;13.452;2023-08-08T15:35:14;21.80;99.90
19646;DHT22;9971;52.446;13.452;2023-08-08T15:40:17;21.50;99.90
19646;DHT22;9971;52.446;13.452;2023-08-08T15:45:20;21.10;99.90
19646;DHT22;9971;52.446;13.452;2023-08-08T15:50:23;20.60;99.90
19646;DHT22;9971;52.446;13.452;2023-08-08T15:55:25;19.50;99.90
19646;DHT22;9971;52.446;13.452;2023-08-08T16:00:28;18.20;99.90
19646;DHT22;9971;52.446;13.452;2023-08-08T16:05:30;17.60;99.90
19646;DHT22;9971;52.446;13.452;2023-08-08T16:10:32;17.50;99.90
19646;DHT22;9971;52.446;13.452;2023-08-08T16:15:35;18.30;99.90
19646;DHT22;9971;52.446;13.452;2023-08-08T16:20:37;18.70;99.90
19646;DHT22;9971;52.446;13.452;2023-08-08T16:25:40;18.70;99.90
19646;DHT22;9971;52.446;13.452;2023-08-08T16:30:42;18.40;99.90
19646;DHT22;9971;52.446;13.452;2023-08-08T16:35:45;18.00;99.90
19646;DHT22;9971;52.446;13.452;2023-08-08T16:40:47;17.70;99.90
19646;DHT22;9971;52.446;13.452;2023-08-08T16:45:50;17.40;99.90
19646;DHT22;9971;52.446;13.452;2023-08-08T16:50:52;17.00;99.90
19646;DHT22;9971;52.446;13.452;2023-08-08T16:55:54;16.70;99.90
19646;DHT22;9971;52.446;13.452;2023-08-08T17:00:57;16.70;99.90
19646;DHT22;9971;52.446;13.452;2023-08-08T17:05:59;16.90;99.90
19646;DHT22;9971;52.446;13.452;2023-08-08T17:11:01;17.10;99.90
19646;DHT22;9971;52.446;13.452;2023-08-08T17:16:03;17.20;99.90
19646;DHT22;9971;52.446;13.452;2023-08-08T17:21:06;17.30;99.90
19646;DHT22;9971;52.446;13.452;2023-08-08T17:26:08;17.10;99.90
19646;DHT22;9971;52.446;13.452;2023-08-08T17:31:11;17.00;99.90
19646;DHT22;9971;52.446;13.452;2023-08-08T17:36:13;16.90;99.90
19646;DHT22;9971;52.446;13.452;2023-08-08T17:41:16;16.70;99.90
19646;DHT22;9971;52.446;13.452;2023-08-08T17:46:18;16.70;99.90
19646;DHT22;9971;52.446;13.452;2023-08-08T17:51:20;16.60;99.90
19646;DHT22;9971;52.446;13.452;2023-08-08T17:56:23;16.70;99.90
19646;DHT22;9971;52.446;13.452;2023-08-08T18:01:25;16.70;99.90
19646;DHT22;9971;52.446;13.452;2023-08-08T18:06:27;16.70;99.90
19646;DHT22;9971;52.446;13.452;2023-08-08T18:11:30;16.60;99.90
19646;DHT22;9971;52.446;13.452;2023-08-08T18:16:32;16.60;99.90
19646;DHT22;9971;52.446;13.452;2023-08-08T18:21:34;16.60;99.90
19646;DHT22;9971;52.446;13.452;2023-08-08T18:26:36;16.50;99.90
19646;DHT22;9971;52.446;13.452;2023-08-08T18:31:39;16.50;99.90
19646;DHT22;9971;52.446;13.452;2023-08-08T18:36:41;16.50;99.90
19646;DHT22;9971;52.446;13.452;2023-08-08T18:41:44;16.60;99.90
19646;DHT22;9971;52.446;13.452;2023-08-08T18:46:46;16.70;99.90
19646;DHT22;9971;52.446;13.452;2023-08-08T18:51:49;16.70;99.90
19646;DHT22;9971;52.446;13.452;2023-08-08T18:56:51;16.80;99.90
19646;DHT22;9971;52.446;13.452;2023-08-08T19:01:54;16.80;99.90
19646;DHT22;9971;52.446;13.452;2023-08-08T19:06:56;16.80;99.90
19646;DHT22;9971;52.446;13.452;2023-08-08T19:11:59;16.70;99.90
19646;DHT22;9971;52.446;13.452;2023-08-08T19:17:01;16.40;99.90
19646;DHT22;9971;52.446;13.452;2023-08-08T19:22:03;16.30;99.90
19646;DHT22;9971;52.446;13.452;2023-08-08T19:27:05;16.20;99.90
19646;DHT22;9971;52.446;13.452;2023-08-08T19:32:08;16.10;99.90
19646;DHT22;9971;52.446;13.452;2023-08-08T19:37:10;16.00;99.90
19646;DHT22;9971;52.446;13.452;2023-08-08T19:42:12;15.90;99.90
19646;DHT22;9971;52.446;13.452;2023-08-08T19:47:14;15.70;99.90
19646;DHT22;9971;52.446;13.452;2023-08-08T19:52:17;15.60;99.90
19646;DHT22;9971;52.446;13.452;2023-08-08T19:57:20;15.60;99.90
19646;DHT22;9971;52.446;13.452;2023-08-08T20:02:22;15.50;99.90
19646;DHT22;9971;52.446;13.452;2023-08-08T20:07:24;15.50;99.90
19646;DHT22;9971;52.446;13.452;2023-08-08T20:12:26;15.40;99.90
19646;DHT22;9971;52.446;13.452;2023-08-08T20:17:29;15.40;99.90
19646;DHT22;9971;52.446;13.452;2023-08-08T20:22:32;15.40;99.90
19646;DHT22;9971;52.446;13.452;2023-08-08T20:27:34;15.40;99.90
19646;DHT22;9971;52.446;13.452;2023-08-08T20:32:37;15.40;99.90
19646;DHT22;9971;52.446;13.452;2023-08-08T20:37:39;15.30;99.90
19646;DHT22;9971;52.446;13.452;2023-08-08T20:42:41;15.20;99.90
19646;DHT22;9971;52.446;13.452;2023-08-08T20:47:43;15.20;99.90
19646;DHT22;9971;52.446;13.452;2023-08-08T20:52:46;15.20;99.90
19646;DHT22;9971;52.446;13.452;2023-08-08T20:57:48;15.20;99.90
19646;DHT22;9971;52.446;13.452;2023-08-08T21:02:51;15.10;99.90
19646;DHT22;9971;52.446;13.452;2023-08-08T21:07:53;15.10;99.90
19646;DHT22;9971;52.446;13.452;2023-08-08T21:12:55;15.10;99.90
19646;DHT22;9971;52.446;13.452;2023-08-08T21:17:58;15.10;99.90
19646;DHT22;9971;52.446;13.452;2023-08-08T21:23:00;15.10;99.90
19646;DHT22;9971;52.446;13.452;2023-08-08T21:28:03;15.20;99.90
19646;DHT22;9971;52.446;13.452;2023-08-08T21:33:06;15.30;99.90
19646;DHT22;9971;52.446;13.452;2023-08-08T21:38:08;15.50;99.90
19646;DHT22;9971;52.446;13.452;2023-08-08T21:43:10;15.40;99.90
19646;DHT22;9971;52.446;13.452;2023-08-08T21:48:13;15.50;99.90
19646;DHT22;9971;52.446;13.452;2023-08-08T21:53:15;15.50;99.90
19646;DHT22;9971;52.446;13.452;2023-08-08T21:58:18;15.40;99.90
19646;DHT22;9971;52.446;13.452;2023-08-08T22:03:20;15.30;99.90
19646;DHT22;9971;52.446;13.452;2023-08-08T22:08:23;15.30;99.90
19646;DHT22;9971;52.446;13.452;2023-08-08T22:13:26;15.30;99.90
19646;DHT22;9971;52.446;13.452;2023-08-08T22:18:28;15.20;99.90
19646;DHT22;9971;52.446;13.452;2023-08-08T22:23:30;15.20;99.90
19646;DHT22;9971;52.446;13.452;2023-08-08T22:28:32;15.30;99.90
19646;DHT22;9971;52.446;13.452;2023-08-08T22:33:35;15.30;99.90
19646;DHT22;9971;52.446;13.452;2023-08-08T22:38:37;15.30;99.90
19646;DHT22;9971;52.446;13.452;2023-08-08T22:43:39;15.30;99.90
19646;DHT22;9971;52.446;13.452;2023-08-08T22:48:41;15.30;99.90
19646;DHT22;9971;52.446;13.452;2023-08-08T22:53:44;15.20;99.90
19646;DHT22;9971;52.446;13.452;2023-08-08T22:58:46;15.20;99.90
19646;DHT22;9971;52.446;13.452;2023-08-08T23:03:50;15.10;99.90
19646;DHT22;9971;52.446;13.452;2023-08-08T23:08:52;15.10;99.90
19646;DHT22;9971;52.446;13.452;2023-08-08T23:13:55;15.10;99.90
19646;DHT22;9971;52.446;13.452;2023-08-08T23:18:57;15.00;99.90
19646;DHT22;9971;52.446;13.452;2023-08-08T23:24:00;15.00;99.90
19646;DHT22;9971;52.446;13.452;2023-08-08T23:29:03;14.90;99.90
19646;DHT22;9971;52.446;13.452;2023-08-08T23:34:05;14.80;99.90
19646;DHT22;9971;52.446;13.452;2023-08-08T23:39:07;14.70;99.90
19646;DHT22;9971;52.446;13.452;2023-08-08T23:44:09;14.60;99.90
19646;DHT22;9971;52.446;13.452;2023-08-08T23:49:12;14.60;99.90
19646;DHT22;9971;52.446;13.452;2023-08-08T23:54:14;14.60;99.90
19646;DHT22;9971;52.446;13.452;2023-08-08T23:59:17;14.50;99.90
